sensor_id;sensor_type;location;lat;lon;timestamp;temperature;humidity
15705;DHT22;7952;48.396;12.806;2023-10-08T00:02:45;19.40;44.10
15705;DHT22;7952;48.396;12.806;2023-10-08T00:05:11;19.50;44.10
15705;DHT22;7952;48.396;12.806;2023-10-08T00:07:40;19.50;44.10
15705;DHT22;7952;48.396;12.806;2023-10-08T00:10:08;19.50;44.10
15705;DHT22;7952;48.396;12.806;2023-10-08T00:12:34;19.50;44.10
15705;DHT22;7952;48.396;12.806;2023-10-08T00:15:00;19.50;44.10
15705;DHT22;7952;48.396;12.806;2023-10-08T00:17:26;19.50;44.10
15705;DHT22;7952;48.396;12.806;2023-10-08T00:19:52;19.50;44.10
15705;DHT22;7952;48.396;12.806;2023-10-08T00:22:18;19.50;44.10
15705;DHT22;7952;48.396;12.806;2023-10-08T00:24:45;19.50;44.10
15705;DHT22;7952;48.396;12.806;2023-10-08T00:27:20;19.50;44.10
15705;DHT22;7952;48.396;12.806;2023-10-08T00:29:47;19.50;44.10
15705;DHT22;7952;48.396;12.806;2023-10-08T00:32:13;19.50;44.20
15705;DHT22;7952;48.396;12.806;2023-10-08T00:34:40;19.40;44.10
15705;DHT22;7952;48.396;12.806;2023-10-08T00:37:07;19.40;44.10
15705;DHT22;7952;48.396;12.806;2023-10-08T00:39:39;19.50;44.20
15705;DHT22;7952;48.396;12.806;2023-10-08T00:42:06;19.50;44.20
15705;DHT22;7952;48.396;12.806;2023-10-08T00:44:38;19.50;44.20
15705;DHT22;7952;48.396;12.806;2023-10-08T00:47:13;19.50;44.10
15705;DHT22;7952;48.396;12.806;2023-10-08T00:49:39;19.50;44.10
15705;DHT22;7952;48.396;12.806;2023-10-08T00:52:08;19.50;44.10
15705;DHT22;7952;48.396;12.806;2023-10-08T00:54:39;19.50;44.10
15705;DHT22;7952;48.396;12.806;2023-10-08T00:57:27;19.50;44.10
15705;DHT22;7952;48.396;12.806;2023-10-08T00:59:55;19.50;44.10
15705;DHT22;7952;48.396;12.806;2023-10-08T01:02:28;19.50;44.20
15705;DHT22;7952;48.396;12.806;2023-10-08T01:04:56;19.50;44.30
15705;DHT22;7952;48.396;12.806;2023-10-08T01:07:22;19.50;44.20
15705;DHT22;7952;48.396;12.806;2023-10-08T01:09:49;19.40;44.10
15705;DHT22;7952;48.396;12.806;2023-10-08T01:12:28;19.40;44.20
15705;DHT22;7952;48.396;12.806;2023-10-08T01:15:00;19.40;44.20
15705;DHT22;7952;48.396;12.806;2023-10-08T01:17:44;19.40;44.20
15705;DHT22;7952;48.396;12.806;2023-10-08T01:20:31;19.40;44.20
15705;DHT22;7952;48.396;12.806;2023-10-08T01:23:06;19.40;44.30
15705;DHT22;7952;48.396;12.806;2023-10-08T01:25:49;19.40;44.30
15705;DHT22;7952;48.396;12.806;2023-10-08T01:28:20;19.40;44.30
15705;DHT22;7952;48.396;12.806;2023-10-08T01:30:55;19.40;44.30
15705;DHT22;7952;48.396;12.806;2023-10-08T01:33:22;19.40;44.30
15705;DHT22;7952;48.396;12.806;2023-10-08T01:35:52;19.40;44.30
15705;DHT22;7952;48.396;12.806;2023-10-08T01:38:18;19.40;44.60
15705;DHT22;7952;48.396;12.806;2023-10-08T01:40:49;19.40;44.40
15705;DHT22;7952;48.396;12.806;2023-10-08T01:43:19;19.40;44.40
15705;DHT22;7952;48.396;12.806;2023-10-08T01:45:45;19.40;44.40
15705;DHT22;7952;48.396;12.806;2023-10-08T01:48:16;19.40;44.40
15705;DHT22;7952;48.396;12.806;2023-10-08T01:50:49;19.40;44.40
15705;DHT22;7952;48.396;12.806;2023-10-08T01:53:16;19.40;44.50
15705;DHT22;7952;48.396;12.806;2023-10-08T01:55:45;19.40;44.40
15705;DHT22;7952;48.396;12.806;2023-10-08T01:58:15;19.40;44.40
15705;DHT22;7952;48.396;12.806;2023-10-08T02:00:48;19.40;44.40
15705;DHT22;7952;48.396;12.806;2023-10-08T02:03:14;19.40;44.40
15705;DHT22;7952;48.396;12.806;2023-10-08T02:05:48;19.40;44.40
15705;DHT22;7952;48.396;12.806;2023-10-08T02:08:15;19.50;44.50
15705;DHT22;7952;48.396;12.806;2023-10-08T02:10:43;19.40;44.40
15705;DHT22;7952;48.396;12.806;2023-10-08T02:13:12;19.50;44.50
15705;DHT22;7952;48.396;12.806;2023-10-08T02:15:48;19.50;44.50
15705;DHT22;7952;48.396;12.806;2023-10-08T02:18:15;19.50;44.50
15705;DHT22;7952;48.396;12.806;2023-10-08T02:20:41;19.50;44.50
15705;DHT22;7952;48.396;12.806;2023-10-08T02:23:07;19.50;44.50
15705;DHT22;7952;48.396;12.806;2023-10-08T02:25:33;19.40;44.40
15705;DHT22;7952;48.396;12.806;2023-10-08T02:28:03;19.50;44.50
15705;DHT22;7952;48.396;12.806;2023-10-08T02:30:29;19.40;44.40
15705;DHT22;7952;48.396;12.806;2023-10-08T02:32:55;19.50;44.50
15705;DHT22;7952;48.396;12.806;2023-10-08T02:35:21;19.50;44.50
15705;DHT22;7952;48.396;12.806;2023-10-08T02:37:48;19.50;44.50
15705;DHT22;7952;48.396;12.806;2023-10-08T02:40:14;19.50;44.60
15705;DHT22;7952;48.396;12.806;2023-10-08T02:42:53;19.50;44.60
15705;DHT22;7952;48.396;12.806;2023-10-08T02:45:27;19.50;44.60
15705;DHT22;7952;48.396;12.806;2023-10-08T02:47:54;19.50;44.50
15705;DHT22;7952;48.396;12.806;2023-10-08T02:50:21;19.50;44.60
15705;DHT22;7952;48.396;12.806;2023-10-08T02:52:48;19.50;44.60
15705;DHT22;7952;48.396;12.806;2023-10-08T02:55:19;19.50;44.60
15705;DHT22;7952;48.396;12.806;2023-10-08T02:58:00;19.50;44.60
15705;DHT22;7952;48.396;12.806;2023-10-08T03:00:28;19.50;44.60
15705;DHT22;7952;48.396;12.806;2023-10-08T03:03:03;19.50;44.60
15705;DHT22;7952;48.396;12.806;2023-10-08T03:05:35;19.50;44.60
15705;DHT22;7952;48.396;12.806;2023-10-08T03:08:04;19.50;44.50
15705;DHT22;7952;48.396;12.806;2023-10-08T03:10:39;19.50;44.60
15705;DHT22;7952;48.396;12.806;2023-10-08T03:13:07;19.50;44.50
15705;DHT22;7952;48.396;12.806;2023-10-08T03:15:35;19.50;44.60
15705;DHT22;7952;48.396;12.806;2023-10-08T03:18:06;19.50;44.60
15705;DHT22;7952;48.396;12.806;2023-10-08T03:20:40;19.50;44.60
15705;DHT22;7952;48.396;12.806;2023-10-08T03:23:16;19.50;44.60
15705;DHT22;7952;48.396;12.806;2023-10-08T03:25:59;19.50;44.60
15705;DHT22;7952;48.396;12.806;2023-10-08T03:28:43;19.50;44.60
15705;DHT22;7952;48.396;12.806;2023-10-08T03:31:09;19.50;44.60
15705;DHT22;7952;48.396;12.806;2023-10-08T03:33:43;19.50;44.60
15705;DHT22;7952;48.396;12.806;2023-10-08T03:36:14;19.50;44.60
15705;DHT22;7952;48.396;12.806;2023-10-08T03:38:47;19.50;44.60
15705;DHT22;7952;48.396;12.806;2023-10-08T03:41:26;19.50;44.60
15705;DHT22;7952;48.396;12.806;2023-10-08T03:43:55;19.50;44.60
15705;DHT22;7952;48.396;12.806;2023-10-08T03:46:31;19.50;44.70
15705;DHT22;7952;48.396;12.806;2023-10-08T03:48:58;19.50;44.60
15705;DHT22;7952;48.396;12.806;2023-10-08T03:51:31;19.40;44.60
15705;DHT22;7952;48.396;12.806;2023-10-08T03:54:07;19.40;44.60
15705;DHT22;7952;48.396;12.806;2023-10-08T03:56:44;19.40;44.60
15705;DHT22;7952;48.396;12.806;2023-10-08T03:59:17;19.40;44.60
15705;DHT22;7952;48.396;12.806;2023-10-08T04:01:59;19.40;44.60
15705;DHT22;7952;48.396;12.806;2023-10-08T04:04:34;19.40;44.60
15705;DHT22;7952;48.396;12.806;2023-10-08T04:07:19;19.40;44.60
15705;DHT22;7952;48.396;12.806;2023-10-08T04:09:57;19.40;44.70
15705;DHT22;7952;48.396;12.806;2023-10-08T04:12:36;19.40;44.70
15705;DHT22;7952;48.396;12.806;2023-10-08T04:15:08;19.30;44.60
15705;DHT22;7952;48.396;12.806;2023-10-08T04:17:35;19.30;44.70
15705;DHT22;7952;48.396;12.806;2023-10-08T04:20:12;19.30;44.70
15705;DHT22;7952;48.396;12.806;2023-10-08T04:23:03;19.30;44.70
15705;DHT22;7952;48.396;12.806;2023-10-08T04:25:31;19.30;44.70
15705;DHT22;7952;48.396;12.806;2023-10-08T04:27:58;19.30;44.70
15705;DHT22;7952;48.396;12.806;2023-10-08T04:30:42;19.20;44.70
15705;DHT22;7952;48.396;12.806;2023-10-08T04:33:11;19.20;44.80
15705;DHT22;7952;48.396;12.806;2023-10-08T04:35:39;19.20;44.80
15705;DHT22;7952;48.396;12.806;2023-10-08T04:38:19;19.10;44.80
15705;DHT22;7952;48.396;12.806;2023-10-08T04:40:47;19.10;44.80
15705;DHT22;7952;48.396;12.806;2023-10-08T04:43:21;19.10;44.80
15705;DHT22;7952;48.396;12.806;2023-10-08T04:46:00;19.10;44.90
15705;DHT22;7952;48.396;12.806;2023-10-08T04:48:46;19.10;44.90
15705;DHT22;7952;48.396;12.806;2023-10-08T04:51:12;19.10;44.90
15705;DHT22;7952;48.396;12.806;2023-10-08T04:53:39;19.00;44.80
15705;DHT22;7952;48.396;12.806;2023-10-08T04:56:11;19.00;44.90
15705;DHT22;7952;48.396;12.806;2023-10-08T04:58:49;19.00;45.50
15705;DHT22;7952;48.396;12.806;2023-10-08T05:01:17;19.00;44.90
15705;DHT22;7952;48.396;12.806;2023-10-08T05:03:50;19.00;45.00
15705;DHT22;7952;48.396;12.806;2023-10-08T05:06:27;19.00;45.00
15705;DHT22;7952;48.396;12.806;2023-10-08T05:09:02;19.00;45.00
15705;DHT22;7952;48.396;12.806;2023-10-08T05:11:51;19.00;45.00
15705;DHT22;7952;48.396;12.806;2023-10-08T05:14:21;19.00;45.00
15705;DHT22;7952;48.396;12.806;2023-10-08T05:16:56;19.00;45.00
15705;DHT22;7952;48.396;12.806;2023-10-08T05:19:47;18.90;45.00
15705;DHT22;7952;48.396;12.806;2023-10-08T05:22:17;18.90;45.00
15705;DHT22;7952;48.396;12.806;2023-10-08T05:25:03;18.90;45.00
15705;DHT22;7952;48.396;12.806;2023-10-08T05:27:43;18.90;45.00
15705;DHT22;7952;48.396;12.806;2023-10-08T05:30:16;18.90;45.00
15705;DHT22;7952;48.396;12.806;2023-10-08T05:33:04;18.90;45.00
15705;DHT22;7952;48.396;12.806;2023-10-08T05:35:44;18.90;45.00
15705;DHT22;7952;48.396;12.806;2023-10-08T05:38:12;18.90;45.00
15705;DHT22;7952;48.396;12.806;2023-10-08T05:40:57;19.00;45.10
15705;DHT22;7952;48.396;12.806;2023-10-08T05:43:33;19.00;45.10
15705;DHT22;7952;48.396;12.806;2023-10-08T05:46:19;19.00;45.10
15705;DHT22;7952;48.396;12.806;2023-10-08T05:51:37;19.00;45.10
15705;DHT22;7952;48.396;12.806;2023-10-08T05:54:23;19.00;45.00
15705;DHT22;7952;48.396;12.806;2023-10-08T05:57:06;19.00;45.00
15705;DHT22;7952;48.396;12.806;2023-10-08T05:59:42;19.00;45.00
15705;DHT22;7952;48.396;12.806;2023-10-08T06:02:21;19.00;45.10
15705;DHT22;7952;48.396;12.806;2023-10-08T06:04:57;19.00;45.00
15705;DHT22;7952;48.396;12.806;2023-10-08T06:07:45;19.00;45.10
15705;DHT22;7952;48.396;12.806;2023-10-08T06:10:35;19.00;45.10
15705;DHT22;7952;48.396;12.806;2023-10-08T06:13:07;19.00;45.10
15705;DHT22;7952;48.396;12.806;2023-10-08T06:15:56;19.00;45.10
15705;DHT22;7952;48.396;12.806;2023-10-08T06:18:27;19.00;45.10
15705;DHT22;7952;48.396;12.806;2023-10-08T06:21:06;19.00;45.10
15705;DHT22;7952;48.396;12.806;2023-10-08T06:23:39;19.00;45.10
15705;DHT22;7952;48.396;12.806;2023-10-08T06:26:07;19.00;45.10
15705;DHT22;7952;48.396;12.806;2023-10-08T06:28:38;19.00;45.20
15705;DHT22;7952;48.396;12.806;2023-10-08T06:31:05;19.10;45.20
15705;DHT22;7952;48.396;12.806;2023-10-08T06:33:40;19.10;45.20
15705;DHT22;7952;48.396;12.806;2023-10-08T06:36:06;19.10;45.20
15705;DHT22;7952;48.396;12.806;2023-10-08T06:38:39;19.10;45.20
15705;DHT22;7952;48.396;12.806;2023-10-08T06:41:07;19.10;45.80
15705;DHT22;7952;48.396;12.806;2023-10-08T06:43:38;19.20;45.20
15705;DHT22;7952;48.396;12.806;2023-10-08T06:46:05;19.20;45.20
15705;DHT22;7952;48.396;12.806;2023-10-08T06:48:39;19.20;45.20
15705;DHT22;7952;48.396;12.806;2023-10-08T06:51:09;19.20;45.20
15705;DHT22;7952;48.396;12.806;2023-10-08T06:53:46;19.30;45.20
15705;DHT22;7952;48.396;12.806;2023-10-08T06:56:16;19.30;45.20
15705;DHT22;7952;48.396;12.806;2023-10-08T06:58:42;19.30;45.20
15705;DHT22;7952;48.396;12.806;2023-10-08T07:01:18;19.30;45.20
15705;DHT22;7952;48.396;12.806;2023-10-08T07:03:48;19.30;45.20
15705;DHT22;7952;48.396;12.806;2023-10-08T07:06:18;19.30;45.20
15705;DHT22;7952;48.396;12.806;2023-10-08T07:08:58;19.40;45.20
15705;DHT22;7952;48.396;12.806;2023-10-08T07:11:26;19.40;45.20
15705;DHT22;7952;48.396;12.806;2023-10-08T07:13:55;19.40;45.20
15705;DHT22;7952;48.396;12.806;2023-10-08T07:16:22;19.40;45.20
15705;DHT22;7952;48.396;12.806;2023-10-08T07:18:48;19.40;45.20
15705;DHT22;7952;48.396;12.806;2023-10-08T07:21:18;19.50;45.20
15705;DHT22;7952;48.396;12.806;2023-10-08T07:23:49;19.40;45.20
15705;DHT22;7952;48.396;12.806;2023-10-08T07:26:30;19.50;45.30
15705;DHT22;7952;48.396;12.806;2023-10-08T07:29:02;19.50;45.30
15705;DHT22;7952;48.396;12.806;2023-10-08T07:31:35;19.50;45.30
15705;DHT22;7952;48.396;12.806;2023-10-08T07:34:03;19.50;45.30
15705;DHT22;7952;48.396;12.806;2023-10-08T07:36:46;19.50;45.30
15705;DHT22;7952;48.396;12.806;2023-10-08T07:39:16;19.50;45.30
15705;DHT22;7952;48.396;12.806;2023-10-08T07:41:53;19.60;45.30
15705;DHT22;7952;48.396;12.806;2023-10-08T07:44:23;19.60;45.30
15705;DHT22;7952;48.396;12.806;2023-10-08T07:46:52;19.60;45.30
15705;DHT22;7952;48.396;12.806;2023-10-08T07:49:25;19.70;45.40
15705;DHT22;7952;48.396;12.806;2023-10-08T07:51:57;19.70;45.30
15705;DHT22;7952;48.396;12.806;2023-10-08T07:54:25;19.70;45.30
15705;DHT22;7952;48.396;12.806;2023-10-08T07:56:55;19.80;45.30
15705;DHT22;7952;48.396;12.806;2023-10-08T07:59:43;19.80;45.30
15705;DHT22;7952;48.396;12.806;2023-10-08T08:02:14;19.80;45.30
15705;DHT22;7952;48.396;12.806;2023-10-08T08:04:41;19.80;45.30
15705;DHT22;7952;48.396;12.806;2023-10-08T08:07:16;19.80;45.30
15705;DHT22;7952;48.396;12.806;2023-10-08T08:09:45;19.80;45.30
15705;DHT22;7952;48.396;12.806;2023-10-08T08:12:18;19.90;45.40
15705;DHT22;7952;48.396;12.806;2023-10-08T08:14:45;19.90;45.40
15705;DHT22;7952;48.396;12.806;2023-10-08T08:17:11;19.90;45.40
15705;DHT22;7952;48.396;12.806;2023-10-08T08:19:43;19.90;45.40
15705;DHT22;7952;48.396;12.806;2023-10-08T08:22:10;19.90;45.40
15705;DHT22;7952;48.396;12.806;2023-10-08T08:24:43;19.90;45.40
15705;DHT22;7952;48.396;12.806;2023-10-08T08:27:11;19.90;45.40
15705;DHT22;7952;48.396;12.806;2023-10-08T08:29:50;19.90;45.50
15705;DHT22;7952;48.396;12.806;2023-10-08T08:32:18;19.90;45.50
15705;DHT22;7952;48.396;12.806;2023-10-08T08:34:47;19.90;45.50
15705;DHT22;7952;48.396;12.806;2023-10-08T08:37:16;19.90;45.50
15705;DHT22;7952;48.396;12.806;2023-10-08T08:39:42;19.90;45.60
15705;DHT22;7952;48.396;12.806;2023-10-08T08:42:08;19.90;45.60
15705;DHT22;7952;48.396;12.806;2023-10-08T08:44:43;19.90;45.60
15705;DHT22;7952;48.396;12.806;2023-10-08T08:47:12;19.90;45.60
15705;DHT22;7952;48.396;12.806;2023-10-08T08:49:44;20.00;45.60
15705;DHT22;7952;48.396;12.806;2023-10-08T08:52:11;20.00;45.60
15705;DHT22;7952;48.396;12.806;2023-10-08T08:54:39;20.00;45.60
15705;DHT22;7952;48.396;12.806;2023-10-08T08:57:05;20.00;45.60
15705;DHT22;7952;48.396;12.806;2023-10-08T08:59:52;20.10;45.60
15705;DHT22;7952;48.396;12.806;2023-10-08T09:02:19;20.10;45.60
15705;DHT22;7952;48.396;12.806;2023-10-08T09:04:47;20.10;45.60
15705;DHT22;7952;48.396;12.806;2023-10-08T09:07:14;20.10;45.60
15705;DHT22;7952;48.396;12.806;2023-10-08T09:09:40;20.10;45.60
15705;DHT22;7952;48.396;12.806;2023-10-08T09:12:07;20.10;45.50
15705;DHT22;7952;48.396;12.806;2023-10-08T09:14:36;20.10;45.50
15705;DHT22;7952;48.396;12.806;2023-10-08T09:17:04;20.10;45.50
15705;DHT22;7952;48.396;12.806;2023-10-08T09:19:36;20.10;45.50
15705;DHT22;7952;48.396;12.806;2023-10-08T09:22:10;20.20;45.60
15705;DHT22;7952;48.396;12.806;2023-10-08T09:24:39;20.10;45.60
15705;DHT22;7952;48.396;12.806;2023-10-08T09:27:05;20.20;45.70
15705;DHT22;7952;48.396;12.806;2023-10-08T09:29:33;20.20;45.70
15705;DHT22;7952;48.396;12.806;2023-10-08T09:32:06;20.20;45.70
15705;DHT22;7952;48.396;12.806;2023-10-08T09:34:33;20.20;45.70
15705;DHT22;7952;48.396;12.806;2023-10-08T09:37:00;20.20;45.70
15705;DHT22;7952;48.396;12.806;2023-10-08T09:39:27;20.20;45.70
15705;DHT22;7952;48.396;12.806;2023-10-08T09:41:58;20.20;45.70
15705;DHT22;7952;48.396;12.806;2023-10-08T09:44:24;20.20;45.70
15705;DHT22;7952;48.396;12.806;2023-10-08T09:47:07;20.30;45.80
15705;DHT22;7952;48.396;12.806;2023-10-08T09:49:40;20.30;45.80
15705;DHT22;7952;48.396;12.806;2023-10-08T09:52:12;20.30;45.80
15705;DHT22;7952;48.396;12.806;2023-10-08T09:54:53;20.40;45.80
15705;DHT22;7952;48.396;12.806;2023-10-08T09:57:22;20.50;45.90
15705;DHT22;7952;48.396;12.806;2023-10-08T09:59:52;20.50;45.80
15705;DHT22;7952;48.396;12.806;2023-10-08T10:02:19;20.60;45.80
15705;DHT22;7952;48.396;12.806;2023-10-08T10:04:54;20.60;45.70
15705;DHT22;7952;48.396;12.806;2023-10-08T10:07:21;20.60;45.70
15705;DHT22;7952;48.396;12.806;2023-10-08T10:09:56;20.60;45.70
15705;DHT22;7952;48.396;12.806;2023-10-08T10:12:26;20.60;45.70
15705;DHT22;7952;48.396;12.806;2023-10-08T10:14:55;20.60;45.70
15705;DHT22;7952;48.396;12.806;2023-10-08T10:17:22;20.60;45.70
15705;DHT22;7952;48.396;12.806;2023-10-08T10:19:57;20.60;45.70
15705;DHT22;7952;48.396;12.806;2023-10-08T10:22:46;20.60;45.70
15705;DHT22;7952;48.396;12.806;2023-10-08T10:25:16;20.60;45.70
15705;DHT22;7952;48.396;12.806;2023-10-08T10:30:52;20.60;45.80
15705;DHT22;7952;48.396;12.806;2023-10-08T10:33:18;20.60;45.80
15705;DHT22;7952;48.396;12.806;2023-10-08T10:35:53;20.60;45.80
15705;DHT22;7952;48.396;12.806;2023-10-08T10:38:23;20.60;45.80
15705;DHT22;7952;48.396;12.806;2023-10-08T10:40:52;20.60;45.80
15705;DHT22;7952;48.396;12.806;2023-10-08T10:43:33;20.60;45.80
15705;DHT22;7952;48.396;12.806;2023-10-08T10:46:00;20.60;45.90
15705;DHT22;7952;48.396;12.806;2023-10-08T10:48:46;20.60;45.90
15705;DHT22;7952;48.396;12.806;2023-10-08T10:51:30;20.60;45.90
15705;DHT22;7952;48.396;12.806;2023-10-08T10:53:59;20.60;45.90
15705;DHT22;7952;48.396;12.806;2023-10-08T10:56:36;20.60;46.00
15705;DHT22;7952;48.396;12.806;2023-10-08T10:59:11;20.60;46.00
15705;DHT22;7952;48.396;12.806;2023-10-08T11:01:53;20.60;45.90
15705;DHT22;7952;48.396;12.806;2023-10-08T11:04:31;20.60;45.90
15705;DHT22;7952;48.396;12.806;2023-10-08T11:06:58;20.70;46.00
15705;DHT22;7952;48.396;12.806;2023-10-08T11:09:27;20.70;45.90
15705;DHT22;7952;48.396;12.806;2023-10-08T11:12:04;20.70;45.90
15705;DHT22;7952;48.396;12.806;2023-10-08T11:14:40;20.70;45.90
15705;DHT22;7952;48.396;12.806;2023-10-08T11:17:27;20.70;45.90
15705;DHT22;7952;48.396;12.806;2023-10-08T11:19:54;20.70;46.00
15705;DHT22;7952;48.396;12.806;2023-10-08T11:22:28;20.70;46.00
15705;DHT22;7952;48.396;12.806;2023-10-08T11:25:26;20.70;46.00
15705;DHT22;7952;48.396;12.806;2023-10-08T11:27:58;20.70;46.00
15705;DHT22;7952;48.396;12.806;2023-10-08T11:34:05;20.70;46.00
15705;DHT22;7952;48.396;12.806;2023-10-08T11:37:14;20.70;46.10
15705;DHT22;7952;48.396;12.806;2023-10-08T11:39:59;20.70;46.10
15705;DHT22;7952;48.396;12.806;2023-10-08T11:42:25;20.70;46.10
15705;DHT22;7952;48.396;12.806;2023-10-08T11:45:12;20.80;46.10
15705;DHT22;7952;48.396;12.806;2023-10-08T11:47:45;20.80;46.10
15705;DHT22;7952;48.396;12.806;2023-10-08T11:50:15;20.80;46.00
15705;DHT22;7952;48.396;12.806;2023-10-08T11:52:46;20.80;46.00
15705;DHT22;7952;48.396;12.806;2023-10-08T11:55:12;20.80;46.00
15705;DHT22;7952;48.396;12.806;2023-10-08T11:57:50;20.80;46.00
15705;DHT22;7952;48.396;12.806;2023-10-08T12:00:17;20.80;46.10
15705;DHT22;7952;48.396;12.806;2023-10-08T12:02:51;20.80;46.10
15705;DHT22;7952;48.396;12.806;2023-10-08T12:05:20;20.90;46.20
15705;DHT22;7952;48.396;12.806;2023-10-08T12:07:50;20.90;46.20
15705;DHT22;7952;48.396;12.806;2023-10-08T12:10:20;20.90;46.20
15705;DHT22;7952;48.396;12.806;2023-10-08T12:12:52;21.00;46.20
15705;DHT22;7952;48.396;12.806;2023-10-08T12:15:21;21.10;46.30
15705;DHT22;7952;48.396;12.806;2023-10-08T12:17:48;21.10;46.20
15705;DHT22;7952;48.396;12.806;2023-10-08T12:20:33;21.20;46.20
15705;DHT22;7952;48.396;12.806;2023-10-08T12:23:00;21.30;46.20
15705;DHT22;7952;48.396;12.806;2023-10-08T12:25:25;21.30;46.00
15705;DHT22;7952;48.396;12.806;2023-10-08T12:27:51;21.30;46.00
15705;DHT22;7952;48.396;12.806;2023-10-08T12:30:18;21.30;46.00
15705;DHT22;7952;48.396;12.806;2023-10-08T12:32:44;21.30;46.00
15705;DHT22;7952;48.396;12.806;2023-10-08T12:35:11;21.30;46.10
15705;DHT22;7952;48.396;12.806;2023-10-08T12:37:40;21.20;46.00
15705;DHT22;7952;48.396;12.806;2023-10-08T12:40:10;21.20;46.10
15705;DHT22;7952;48.396;12.806;2023-10-08T12:42:56;21.20;46.10
15705;DHT22;7952;48.396;12.806;2023-10-08T12:45:24;21.20;46.20
15705;DHT22;7952;48.396;12.806;2023-10-08T12:47:53;21.20;46.70
15705;DHT22;7952;48.396;12.806;2023-10-08T12:50:20;21.20;46.30
15705;DHT22;7952;48.396;12.806;2023-10-08T12:52:58;21.20;46.30
15705;DHT22;7952;48.396;12.806;2023-10-08T12:55:30;21.30;46.40
15705;DHT22;7952;48.396;12.806;2023-10-08T12:57:56;21.30;46.40
15705;DHT22;7952;48.396;12.806;2023-10-08T13:00:32;21.30;46.40
15705;DHT22;7952;48.396;12.806;2023-10-08T13:02:57;21.40;46.40
15705;DHT22;7952;48.396;12.806;2023-10-08T13:05:23;21.40;46.30
15705;DHT22;7952;48.396;12.806;2023-10-08T13:07:57;21.50;46.40
15705;DHT22;7952;48.396;12.806;2023-10-08T13:10:29;21.60;46.50
15705;DHT22;7952;48.396;12.806;2023-10-08T13:12:56;21.60;46.40
15705;DHT22;7952;48.396;12.806;2023-10-08T13:15:23;21.70;46.40
15705;DHT22;7952;48.396;12.806;2023-10-08T13:17:52;21.70;46.30
15705;DHT22;7952;48.396;12.806;2023-10-08T13:20:18;21.80;46.30
15705;DHT22;7952;48.396;12.806;2023-10-08T13:22:44;21.80;46.30
15705;DHT22;7952;48.396;12.806;2023-10-08T13:25:11;21.90;46.30
15705;DHT22;7952;48.396;12.806;2023-10-08T13:27:39;21.90;46.30
15705;DHT22;7952;48.396;12.806;2023-10-08T13:30:08;21.90;46.20
15705;DHT22;7952;48.396;12.806;2023-10-08T13:32:35;21.90;46.20
15705;DHT22;7952;48.396;12.806;2023-10-08T13:35:05;21.90;46.20
15705;DHT22;7952;48.396;12.806;2023-10-08T13:37:36;21.90;46.20
15705;DHT22;7952;48.396;12.806;2023-10-08T13:40:02;22.00;46.30
15705;DHT22;7952;48.396;12.806;2023-10-08T13:42:29;22.00;46.30
15705;DHT22;7952;48.396;12.806;2023-10-08T13:44:55;22.00;46.30
15705;DHT22;7952;48.396;12.806;2023-10-08T13:47:25;22.00;46.30
15705;DHT22;7952;48.396;12.806;2023-10-08T13:49:55;22.00;46.30
15705;DHT22;7952;48.396;12.806;2023-10-08T13:52:23;22.00;46.20
15705;DHT22;7952;48.396;12.806;2023-10-08T13:54:52;22.10;46.30
15705;DHT22;7952;48.396;12.806;2023-10-08T13:57:22;22.10;46.30
15705;DHT22;7952;48.396;12.806;2023-10-08T13:59:50;22.00;46.20
15705;DHT22;7952;48.396;12.806;2023-10-08T14:02:17;22.00;46.30
15705;DHT22;7952;48.396;12.806;2023-10-08T14:04:47;22.00;46.30
15705;DHT22;7952;48.396;12.806;2023-10-08T14:07:16;22.00;46.30
15705;DHT22;7952;48.396;12.806;2023-10-08T14:09:45;22.00;46.30
15705;DHT22;7952;48.396;12.806;2023-10-08T14:12:14;22.00;46.30
15705;DHT22;7952;48.396;12.806;2023-10-08T14:14:40;22.00;46.40
15705;DHT22;7952;48.396;12.806;2023-10-08T14:17:09;21.90;46.30
15705;DHT22;7952;48.396;12.806;2023-10-08T14:19:41;21.90;46.40
15705;DHT22;7952;48.396;12.806;2023-10-08T14:22:18;21.90;46.50
15705;DHT22;7952;48.396;12.806;2023-10-08T14:24:47;21.90;46.60
15705;DHT22;7952;48.396;12.806;2023-10-08T14:27:25;21.90;46.60
15705;DHT22;7952;48.396;12.806;2023-10-08T14:29:57;21.90;46.60
15705;DHT22;7952;48.396;12.806;2023-10-08T14:32:27;21.90;46.60
15705;DHT22;7952;48.396;12.806;2023-10-08T14:34:53;21.80;46.60
15705;DHT22;7952;48.396;12.806;2023-10-08T14:37:20;21.80;46.60
15705;DHT22;7952;48.396;12.806;2023-10-08T14:40:04;21.80;46.60
15705;DHT22;7952;48.396;12.806;2023-10-08T14:42:52;21.80;47.30
15705;DHT22;7952;48.396;12.806;2023-10-08T14:45:29;21.80;46.70
15705;DHT22;7952;48.396;12.806;2023-10-08T14:47:57;21.70;46.70
15705;DHT22;7952;48.396;12.806;2023-10-08T14:50:24;21.70;46.70
15705;DHT22;7952;48.396;12.806;2023-10-08T14:52:54;21.70;46.70
15705;DHT22;7952;48.396;12.806;2023-10-08T14:55:21;21.70;46.80
15705;DHT22;7952;48.396;12.806;2023-10-08T14:57:49;21.60;46.70
15705;DHT22;7952;48.396;12.806;2023-10-08T15:00:22;21.60;46.80
15705;DHT22;7952;48.396;12.806;2023-10-08T15:02:54;21.60;46.90
15705;DHT22;7952;48.396;12.806;2023-10-08T15:05:21;21.50;46.80
15705;DHT22;7952;48.396;12.806;2023-10-08T15:07:49;21.50;46.90
15705;DHT22;7952;48.396;12.806;2023-10-08T15:10:15;21.50;46.90
15705;DHT22;7952;48.396;12.806;2023-10-08T15:12:41;21.40;46.90
15705;DHT22;7952;48.396;12.806;2023-10-08T15:15:10;21.40;46.90
15705;DHT22;7952;48.396;12.806;2023-10-08T15:18:17;21.40;47.00
15705;DHT22;7952;48.396;12.806;2023-10-08T15:21:00;21.30;47.00
15705;DHT22;7952;48.396;12.806;2023-10-08T15:23:29;21.30;47.00
15705;DHT22;7952;48.396;12.806;2023-10-08T15:26:01;21.20;47.00
15705;DHT22;7952;48.396;12.806;2023-10-08T15:28:27;21.20;47.00
15705;DHT22;7952;48.396;12.806;2023-10-08T15:30:56;21.20;47.00
15705;DHT22;7952;48.396;12.806;2023-10-08T15:33:22;21.20;47.10
15705;DHT22;7952;48.396;12.806;2023-10-08T15:35:48;21.10;47.00
15705;DHT22;7952;48.396;12.806;2023-10-08T15:38:17;21.10;47.10
15705;DHT22;7952;48.396;12.806;2023-10-08T15:40:43;21.10;47.20
15705;DHT22;7952;48.396;12.806;2023-10-08T15:43:10;21.00;47.10
15705;DHT22;7952;48.396;12.806;2023-10-08T15:45:39;20.90;47.10
15705;DHT22;7952;48.396;12.806;2023-10-08T15:48:07;20.90;47.20
15705;DHT22;7952;48.396;12.806;2023-10-08T15:50:34;20.90;47.30
15705;DHT22;7952;48.396;12.806;2023-10-08T15:53:00;20.90;47.30
15705;DHT22;7952;48.396;12.806;2023-10-08T15:55:26;20.80;47.20
15705;DHT22;7952;48.396;12.806;2023-10-08T15:57:52;20.80;47.30
15705;DHT22;7952;48.396;12.806;2023-10-08T16:00:21;20.80;47.40
15705;DHT22;7952;48.396;12.806;2023-10-08T16:02:47;20.70;47.30
15705;DHT22;7952;48.396;12.806;2023-10-08T16:05:13;20.70;47.40
15705;DHT22;7952;48.396;12.806;2023-10-08T16:07:40;20.60;47.40
15705;DHT22;7952;48.396;12.806;2023-10-08T16:10:30;20.60;47.50